sensor_id;sensor_type;location;lat;lon;timestamp;P1;durP1;ratioP1;P2;durP2;ratioP2
36691;SDS011;22678;52.052;4.242;2023-07-09T00:02:25;12.45;;;8.25;;
36691;SDS011;22678;52.052;4.242;2023-07-09T00:04:51;10.40;;;7.35;;
36691;SDS011;22678;52.052;4.242;2023-07-09T00:09:53;11.90;;;7.80;;
36691;SDS011;22678;52.052;4.242;2023-07-09T00:12:20;12.55;;;9.38;;
36691;SDS011;22678;52.052;4.242;2023-07-09T00:14:45;11.40;;;7.15;;
36691;SDS011;22678;52.052;4.242;2023-07-09T00:17:11;13.93;;;9.48;;
36691;SDS011;22678;52.052;4.242;2023-07-09T00:19:44;9.95;;;7.32;;
36691;SDS011;22678;52.052;4.242;2023-07-09T00:22:14;18.98;;;8.35;;
36691;SDS011;22678;52.052;4.242;2023-07-09T00:24:42;10.02;;;7.22;;
36691;SDS011;22678;52.052;4.242;2023-07-09T00:27:09;12.48;;;8.10;;
36691;SDS011;22678;52.052;4.242;2023-07-09T00:29:35;10.48;;;7.75;;
36691;SDS011;22678;52.052;4.242;2023-07-09T00:32:00;14.77;;;7.50;;
36691;SDS011;22678;52.052;4.242;2023-07-09T00:34:26;11.07;;;7.97;;
36691;SDS011;22678;52.052;4.242;2023-07-09T00:36:51;11.25;;;8.20;;
36691;SDS011;22678;52.052;4.242;2023-07-09T00:39:17;11.88;;;8.65;;
36691;SDS011;22678;52.052;4.242;2023-07-09T00:41:45;14.98;;;9.63;;
36691;SDS011;22678;52.052;4.242;2023-07-09T00:52:00;12.23;;;8.77;;
36691;SDS011;22678;52.052;4.242;2023-07-09T00:54:44;11.18;;;7.80;;
36691;SDS011;22678;52.052;4.242;2023-07-09T00:57:15;12.68;;;8.95;;
36691;SDS011;22678;52.052;4.242;2023-07-09T00:59:43;12.52;;;9.35;;
36691;SDS011;22678;52.052;4.242;2023-07-09T01:02:11;13.23;;;9.80;;
36691;SDS011;22678;52.052;4.242;2023-07-09T01:04:37;13.23;;;9.25;;
36691;SDS011;22678;52.052;4.242;2023-07-09T01:07:05;13.27;;;8.27;;
36691;SDS011;22678;52.052;4.242;2023-07-09T01:09:30;12.30;;;9.05;;
36691;SDS011;22678;52.052;4.242;2023-07-09T01:11:56;13.63;;;8.38;;
36691;SDS011;22678;52.052;4.242;2023-07-09T01:14:26;10.10;;;8.32;;
36691;SDS011;22678;52.052;4.242;2023-07-09T01:16:59;13.23;;;9.77;;
36691;SDS011;22678;52.052;4.242;2023-07-09T01:19:28;12.20;;;9.25;;
36691;SDS011;22678;52.052;4.242;2023-07-09T01:21:56;12.45;;;8.93;;
36691;SDS011;22678;52.052;4.242;2023-07-09T01:27:15;11.65;;;7.45;;
36691;SDS011;22678;52.052;4.242;2023-07-09T01:29:43;12.43;;;9.20;;
36691;SDS011;22678;52.052;4.242;2023-07-09T01:32:14;14.88;;;8.48;;
36691;SDS011;22678;52.052;4.242;2023-07-09T01:34:42;13.93;;;7.53;;
36691;SDS011;22678;52.052;4.242;2023-07-09T01:37:07;11.80;;;9.57;;
36691;SDS011;22678;52.052;4.242;2023-07-09T01:39:33;19.33;;;10.30;;
36691;SDS011;22678;52.052;4.242;2023-07-09T01:41:58;12.50;;;8.82;;
36691;SDS011;22678;52.052;4.242;2023-07-09T01:44:24;12.27;;;9.23;;
36691;SDS011;22678;52.052;4.242;2023-07-09T01:46:54;16.10;;;11.15;;
36691;SDS011;22678;52.052;4.242;2023-07-09T01:49:19;13.15;;;9.48;;
36691;SDS011;22678;52.052;4.242;2023-07-09T01:51:46;15.93;;;9.23;;
36691;SDS011;22678;52.052;4.242;2023-07-09T01:54:14;16.58;;;9.77;;
36691;SDS011;22678;52.052;4.242;2023-07-09T01:56:41;13.13;;;9.40;;
36691;SDS011;22678;52.052;4.242;2023-07-09T01:59:07;13.77;;;8.88;;
36691;SDS011;22678;52.052;4.242;2023-07-09T02:01:36;14.18;;;9.57;;
36691;SDS011;22678;52.052;4.242;2023-07-09T02:04:03;14.00;;;9.95;;
36691;SDS011;22678;52.052;4.242;2023-07-09T02:06:28;15.45;;;10.55;;
36691;SDS011;22678;52.052;4.242;2023-07-09T02:08:57;17.80;;;12.07;;
36691;SDS011;22678;52.052;4.242;2023-07-09T02:11:23;15.50;;;11.25;;
36691;SDS011;22678;52.052;4.242;2023-07-09T02:13:48;16.98;;;11.82;;
36691;SDS011;22678;52.052;4.242;2023-07-09T02:16:14;16.98;;;10.57;;
36691;SDS011;22678;52.052;4.242;2023-07-09T02:18:39;16.25;;;10.73;;
36691;SDS011;22678;52.052;4.242;2023-07-09T02:21:04;17.40;;;10.45;;
36691;SDS011;22678;52.052;4.242;2023-07-09T02:23:29;15.70;;;10.45;;
36691;SDS011;22678;52.052;4.242;2023-07-09T02:25:55;15.57;;;10.48;;
36691;SDS011;22678;52.052;4.242;2023-07-09T02:28:20;17.23;;;9.00;;
36691;SDS011;22678;52.052;4.242;2023-07-09T02:30:45;13.77;;;9.93;;
36691;SDS011;22678;52.052;4.242;2023-07-09T02:33:11;16.35;;;10.98;;
36691;SDS011;22678;52.052;4.242;2023-07-09T02:35:36;18.40;;;11.10;;
36691;SDS011;22678;52.052;4.242;2023-07-09T02:38:02;16.70;;;11.05;;
36691;SDS011;22678;52.052;4.242;2023-07-09T02:40:29;15.65;;;10.00;;
36691;SDS011;22678;52.052;4.242;2023-07-09T02:42:54;17.70;;;9.73;;
36691;SDS011;22678;52.052;4.242;2023-07-09T02:45:20;19.02;;;12.73;;
36691;SDS011;22678;52.052;4.242;2023-07-09T02:47:45;16.67;;;10.73;;
36691;SDS011;22678;52.052;4.242;2023-07-09T02:50:11;14.07;;;10.35;;
36691;SDS011;22678;52.052;4.242;2023-07-09T02:52:36;17.27;;;11.80;;
36691;SDS011;22678;52.052;4.242;2023-07-09T02:55:02;13.63;;;10.55;;
36691;SDS011;22678;52.052;4.242;2023-07-09T02:57:27;17.80;;;11.07;;
36691;SDS011;22678;52.052;4.242;2023-07-09T02:59:53;23.02;;;12.30;;
36691;SDS011;22678;52.052;4.242;2023-07-09T03:02:18;15.13;;;11.30;;
36691;SDS011;22678;52.052;4.242;2023-07-09T03:04:43;17.85;;;11.13;;
36691;SDS011;22678;52.052;4.242;2023-07-09T03:07:09;13.52;;;9.90;;
36691;SDS011;22678;52.052;4.242;2023-07-09T03:09:34;13.13;;;9.95;;
36691;SDS011;22678;52.052;4.242;2023-07-09T03:12:00;13.52;;;9.65;;
36691;SDS011;22678;52.052;4.242;2023-07-09T03:14:25;15.57;;;10.35;;
36691;SDS011;22678;52.052;4.242;2023-07-09T03:16:50;14.27;;;10.65;;
36691;SDS011;22678;52.052;4.242;2023-07-09T03:19:16;22.35;;;11.43;;
36691;SDS011;22678;52.052;4.242;2023-07-09T03:21:41;17.05;;;12.35;;
36691;SDS011;22678;52.052;4.242;2023-07-09T03:24:07;22.48;;;17.23;;
36691;SDS011;22678;52.052;4.242;2023-07-09T03:26:33;19.52;;;14.35;;
36691;SDS011;22678;52.052;4.242;2023-07-09T03:28:59;25.73;;;20.05;;
36691;SDS011;22678;52.052;4.242;2023-07-09T03:31:25;25.90;;;18.65;;
36691;SDS011;22678;52.052;4.242;2023-07-09T03:33:51;25.88;;;20.58;;
36691;SDS011;22678;52.052;4.242;2023-07-09T03:36:17;30.35;;;23.58;;
36691;SDS011;22678;52.052;4.242;2023-07-09T03:38:44;31.50;;;26.67;;
36691;SDS011;22678;52.052;4.242;2023-07-09T03:41:10;30.60;;;25.73;;
36691;SDS011;22678;52.052;4.242;2023-07-09T03:43:35;35.47;;;29.02;;
36691;SDS011;22678;52.052;4.242;2023-07-09T03:46:00;33.85;;;29.33;;
36691;SDS011;22678;52.052;4.242;2023-07-09T03:48:26;33.05;;;28.95;;
36691;SDS011;22678;52.052;4.242;2023-07-09T03:50:52;35.15;;;31.08;;
36691;SDS011;22678;52.052;4.242;2023-07-09T03:53:17;33.95;;;29.65;;
36691;SDS011;22678;52.052;4.242;2023-07-09T03:55:44;37.58;;;30.17;;
36691;SDS011;22678;52.052;4.242;2023-07-09T03:58:11;33.83;;;30.00;;
36691;SDS011;22678;52.052;4.242;2023-07-09T04:00:37;38.75;;;29.73;;
36691;SDS011;22678;52.052;4.242;2023-07-09T04:03:02;35.63;;;26.83;;
36691;SDS011;22678;52.052;4.242;2023-07-09T04:05:28;36.00;;;28.55;;
36691;SDS011;22678;52.052;4.242;2023-07-09T04:07:53;37.55;;;30.25;;
36691;SDS011;22678;52.052;4.242;2023-07-09T04:10:19;32.97;;;27.08;;
36691;SDS011;22678;52.052;4.242;2023-07-09T04:12:45;32.70;;;26.52;;
36691;SDS011;22678;52.052;4.242;2023-07-09T04:15:11;30.40;;;26.25;;
36691;SDS011;22678;52.052;4.242;2023-07-09T04:17:40;39.15;;;30.65;;
36691;SDS011;22678;52.052;4.242;2023-07-09T04:20:06;43.03;;;36.25;;
36691;SDS011;22678;52.052;4.242;2023-07-09T04:22:33;40.97;;;34.67;;
36691;SDS011;22678;52.052;4.242;2023-07-09T04:25:00;40.10;;;33.95;;
36691;SDS011;22678;52.052;4.242;2023-07-09T04:27:25;32.80;;;28.83;;
36691;SDS011;22678;52.052;4.242;2023-07-09T04:29:54;33.75;;;27.83;;
36691;SDS011;22678;52.052;4.242;2023-07-09T04:32:19;36.15;;;27.38;;
36691;SDS011;22678;52.052;4.242;2023-07-09T04:34:45;42.00;;;31.58;;
36691;SDS011;22678;52.052;4.242;2023-07-09T04:37:11;30.55;;;27.08;;
36691;SDS011;22678;52.052;4.242;2023-07-09T04:39:42;33.33;;;24.38;;
36691;SDS011;22678;52.052;4.242;2023-07-09T04:42:11;32.97;;;29.35;;
36691;SDS011;22678;52.052;4.242;2023-07-09T04:44:38;31.30;;;26.38;;
36691;SDS011;22678;52.052;4.242;2023-07-09T04:47:04;32.25;;;27.33;;
36691;SDS011;22678;52.052;4.242;2023-07-09T04:49:29;32.92;;;27.25;;
36691;SDS011;22678;52.052;4.242;2023-07-09T04:51:54;34.55;;;30.67;;
36691;SDS011;22678;52.052;4.242;2023-07-09T04:54:21;33.10;;;29.60;;
36691;SDS011;22678;52.052;4.242;2023-07-09T04:56:50;35.22;;;29.02;;
36691;SDS011;22678;52.052;4.242;2023-07-09T04:59:15;35.70;;;29.40;;
36691;SDS011;22678;52.052;4.242;2023-07-09T05:01:40;35.88;;;29.73;;
36691;SDS011;22678;52.052;4.242;2023-07-09T05:04:06;34.72;;;29.77;;
36691;SDS011;22678;52.052;4.242;2023-07-09T05:06:32;38.20;;;30.52;;
36691;SDS011;22678;52.052;4.242;2023-07-09T05:08:58;30.58;;;26.02;;
36691;SDS011;22678;52.052;4.242;2023-07-09T05:11:23;30.17;;;25.95;;
36691;SDS011;22678;52.052;4.242;2023-07-09T05:13:48;34.97;;;25.52;;
36691;SDS011;22678;52.052;4.242;2023-07-09T05:16:14;36.15;;;27.55;;
36691;SDS011;22678;52.052;4.242;2023-07-09T05:18:39;30.63;;;25.25;;
36691;SDS011;22678;52.052;4.242;2023-07-09T05:21:05;30.25;;;21.40;;
36691;SDS011;22678;52.052;4.242;2023-07-09T05:23:30;26.80;;;22.15;;
36691;SDS011;22678;52.052;4.242;2023-07-09T05:25:58;30.48;;;24.70;;
36691;SDS011;22678;52.052;4.242;2023-07-09T05:28:25;23.70;;;19.52;;
36691;SDS011;22678;52.052;4.242;2023-07-09T05:30:51;31.90;;;23.40;;
36691;SDS011;22678;52.052;4.242;2023-07-09T05:33:17;26.23;;;19.48;;
36691;SDS011;22678;52.052;4.242;2023-07-09T05:35:43;29.95;;;18.75;;
36691;SDS011;22678;52.052;4.242;2023-07-09T05:38:09;28.92;;;21.00;;
36691;SDS011;22678;52.052;4.242;2023-07-09T05:40:35;28.33;;;22.88;;
36691;SDS011;22678;52.052;4.242;2023-07-09T05:43:00;25.35;;;21.30;;
36691;SDS011;22678;52.052;4.242;2023-07-09T05:45:25;27.23;;;22.55;;
36691;SDS011;22678;52.052;4.242;2023-07-09T05:47:51;25.42;;;21.77;;
36691;SDS011;22678;52.052;4.242;2023-07-09T05:50:16;25.52;;;19.35;;
36691;SDS011;22678;52.052;4.242;2023-07-09T05:52:42;22.77;;;15.80;;
36691;SDS011;22678;52.052;4.242;2023-07-09T05:55:07;25.08;;;17.17;;
36691;SDS011;22678;52.052;4.242;2023-07-09T05:57:32;19.67;;;13.88;;
36691;SDS011;22678;52.052;4.242;2023-07-09T05:59:58;20.33;;;14.02;;
36691;SDS011;22678;52.052;4.242;2023-07-09T06:02:23;15.82;;;11.80;;
36691;SDS011;22678;52.052;4.242;2023-07-09T06:04:48;17.35;;;11.43;;
36691;SDS011;22678;52.052;4.242;2023-07-09T06:07:14;20.33;;;11.25;;
36691;SDS011;22678;52.052;4.242;2023-07-09T06:09:40;14.60;;;8.95;;
36691;SDS011;22678;52.052;4.242;2023-07-09T06:12:06;14.02;;;8.10;;
36691;SDS011;22678;52.052;4.242;2023-07-09T06:14:32;12.13;;;7.40;;
36691;SDS011;22678;52.052;4.242;2023-07-09T06:16:59;17.30;;;8.45;;
36691;SDS011;22678;52.052;4.242;2023-07-09T06:19:25;13.90;;;7.13;;
36691;SDS011;22678;52.052;4.242;2023-07-09T06:21:51;16.58;;;8.65;;
36691;SDS011;22678;52.052;4.242;2023-07-09T06:24:16;10.80;;;6.07;;
36691;SDS011;22678;52.052;4.242;2023-07-09T06:26:41;13.40;;;7.03;;
36691;SDS011;22678;52.052;4.242;2023-07-09T06:29:06;12.00;;;6.88;;
36691;SDS011;22678;52.052;4.242;2023-07-09T06:31:32;12.95;;;7.25;;
36691;SDS011;22678;52.052;4.242;2023-07-09T06:33:57;11.23;;;7.28;;
36691;SDS011;22678;52.052;4.242;2023-07-09T06:36:22;12.95;;;6.85;;
36691;SDS011;22678;52.052;4.242;2023-07-09T06:38:48;13.57;;;7.28;;
36691;SDS011;22678;52.052;4.242;2023-07-09T06:41:14;10.32;;;6.18;;
36691;SDS011;22678;52.052;4.242;2023-07-09T06:43:40;12.90;;;6.53;;
36691;SDS011;22678;52.052;4.242;2023-07-09T06:46:06;9.93;;;5.97;;
36691;SDS011;22678;52.052;4.242;2023-07-09T06:48:34;12.70;;;6.63;;
36691;SDS011;22678;52.052;4.242;2023-07-09T06:50:59;9.85;;;6.50;;
36691;SDS011;22678;52.052;4.242;2023-07-09T06:53:25;11.93;;;7.57;;
36691;SDS011;22678;52.052;4.242;2023-07-09T06:55:52;12.60;;;6.40;;
36691;SDS011;22678;52.052;4.242;2023-07-09T06:58:20;12.00;;;6.03;;
36691;SDS011;22678;52.052;4.242;2023-07-09T07:00:48;9.38;;;6.13;;
36691;SDS011;22678;52.052;4.242;2023-07-09T07:03:14;11.18;;;6.07;;
36691;SDS011;22678;52.052;4.242;2023-07-09T07:05:47;14.27;;;7.75;;
36691;SDS011;22678;52.052;4.242;2023-07-09T07:08:15;11.07;;;7.00;;
36691;SDS011;22678;52.052;4.242;2023-07-09T07:10:42;8.52;;;6.15;;
36691;SDS011;22678;52.052;4.242;2023-07-09T07:13:07;9.80;;;6.60;;
36691;SDS011;22678;52.052;4.242;2023-07-09T07:15:33;14.82;;;6.10;;
36691;SDS011;22678;52.052;4.242;2023-07-09T07:17:59;14.88;;;6.75;;
36691;SDS011;22678;52.052;4.242;2023-07-09T07:20:24;9.30;;;5.63;;
36691;SDS011;22678;52.052;4.242;2023-07-09T07:22:49;10.27;;;5.50;;
36691;SDS011;22678;52.052;4.242;2023-07-09T07:25:15;10.40;;;5.05;;
36691;SDS011;22678;52.052;4.242;2023-07-09T07:27:41;7.50;;;5.30;;
36691;SDS011;22678;52.052;4.242;2023-07-09T07:30:07;11.65;;;5.95;;
36691;SDS011;22678;52.052;4.242;2023-07-09T07:32:43;8.27;;;5.18;;
36691;SDS011;22678;52.052;4.242;2023-07-09T07:35:10;11.40;;;4.40;;
36691;SDS011;22678;52.052;4.242;2023-07-09T07:37:35;8.98;;;4.45;;
36691;SDS011;22678;52.052;4.242;2023-07-09T07:40:01;9.80;;;4.82;;
36691;SDS011;22678;52.052;4.242;2023-07-09T07:42:27;10.15;;;4.22;;
36691;SDS011;22678;52.052;4.242;2023-07-09T07:44:52;7.68;;;3.40;;
36691;SDS011;22678;52.052;4.242;2023-07-09T07:47:18;10.20;;;3.35;;
36691;SDS011;22678;52.052;4.242;2023-07-09T07:49:44;6.43;;;2.63;;
36691;SDS011;22678;52.052;4.242;2023-07-09T07:52:09;5.10;;;2.30;;
36691;SDS011;22678;52.052;4.242;2023-07-09T07:54:35;6.40;;;2.45;;
36691;SDS011;22678;52.052;4.242;2023-07-09T07:57:00;5.85;;;2.40;;
36691;SDS011;22678;52.052;4.242;2023-07-09T07:59:26;5.95;;;2.08;;
36691;SDS011;22678;52.052;4.242;2023-07-09T08:01:52;5.22;;;2.38;;
36691;SDS011;22678;52.052;4.242;2023-07-09T08:04:17;6.95;;;2.17;;
36691;SDS011;22678;52.052;4.242;2023-07-09T08:06:43;4.45;;;2.08;;
36691;SDS011;22678;52.052;4.242;2023-07-09T08:09:08;3.45;;;1.35;;
36691;SDS011;22678;52.052;4.242;2023-07-09T08:11:34;3.83;;;1.83;;
36691;SDS011;22678;52.052;4.242;2023-07-09T08:14:00;7.40;;;2.33;;
36691;SDS011;22678;52.052;4.242;2023-07-09T08:16:25;6.28;;;2.10;;
36691;SDS011;22678;52.052;4.242;2023-07-09T08:18:51;7.10;;;2.55;;
36691;SDS011;22678;52.052;4.242;2023-07-09T08:21:17;4.93;;;2.05;;
36691;SDS011;22678;52.052;4.242;2023-07-09T08:23:42;3.50;;;1.27;;
36691;SDS011;22678;52.052;4.242;2023-07-09T08:26:08;5.18;;;2.13;;
36691;SDS011;22678;52.052;4.242;2023-07-09T08:28:34;3.58;;;1.73;;
36691;SDS011;22678;52.052;4.242;2023-07-09T08:31:00;4.20;;;2.55;;
36691;SDS011;22678;52.052;4.242;2023-07-09T08:33:25;6.70;;;2.88;;
36691;SDS011;22678;52.052;4.242;2023-07-09T08:35:52;6.30;;;2.95;;
36691;SDS011;22678;52.052;4.242;2023-07-09T08:38:18;5.63;;;3.03;;
36691;SDS011;22678;52.052;4.242;2023-07-09T08:41:29;6.95;;;2.97;;
36691;SDS011;22678;52.052;4.242;2023-07-09T08:49:00;8.82;;;3.78;;
36691;SDS011;22678;52.052;4.242;2023-07-09T08:51:38;9.05;;;4.15;;
36691;SDS011;22678;52.052;4.242;2023-07-09T08:54:07;7.45;;;3.97;;
36691;SDS011;22678;52.052;4.242;2023-07-09T08:56:39;7.10;;;3.90;;
36691;SDS011;22678;52.052;4.242;2023-07-09T08:59:07;6.32;;;3.53;;
36691;SDS011;22678;52.052;4.242;2023-07-09T09:01:38;7.03;;;2.67;;
36691;SDS011;22678;52.052;4.242;2023-07-09T09:04:18;8.23;;;2.65;;
36691;SDS011;22678;52.052;4.242;2023-07-09T09:06:47;6.35;;;2.95;;
36691;SDS011;22678;52.052;4.242;2023-07-09T09:09:38;7.03;;;2.47;;
36691;SDS011;22678;52.052;4.242;2023-07-09T09:14:36;7.28;;;2.50;;
36691;SDS011;22678;52.052;4.242;2023-07-09T09:17:07;6.57;;;2.10;;
36691;SDS011;22678;52.052;4.242;2023-07-09T09:19:39;5.68;;;1.80;;
36691;SDS011;22678;52.052;4.242;2023-07-09T09:22:11;3.13;;;1.42;;
36691;SDS011;22678;52.052;4.242;2023-07-09T09:27:18;3.03;;;1.23;;
36691;SDS011;22678;52.052;4.242;2023-07-09T09:29:44;4.50;;;1.55;;
36691;SDS011;22678;52.052;4.242;2023-07-09T09:34:44;7.35;;;1.88;;
36691;SDS011;22678;52.052;4.242;2023-07-09T09:37:10;2.45;;;0.60;;
36691;SDS011;22678;52.052;4.242;2023-07-09T09:39:39;5.85;;;1.00;;
36691;SDS011;22678;52.052;4.242;2023-07-09T09:42:07;1.90;;;0.63;;
36691;SDS011;22678;52.052;4.242;2023-07-09T09:44:35;3.42;;;0.68;;
36691;SDS011;22678;52.052;4.242;2023-07-09T09:47:01;5.07;;;0.75;;
36691;SDS011;22678;52.052;4.242;2023-07-09T09:49:26;3.35;;;1.30;;
36691;SDS011;22678;52.052;4.242;2023-07-09T09:51:52;4.15;;;1.08;;
36691;SDS011;22678;52.052;4.242;2023-07-09T09:54:24;6.38;;;2.22;;
36691;SDS011;22678;52.052;4.242;2023-07-09T09:56:52;3.38;;;1.15;;
36691;SDS011;22678;52.052;4.242;2023-07-09T09:59:27;4.40;;;0.80;;
36691;SDS011;22678;52.052;4.242;2023-07-09T10:02:01;2.63;;;0.98;;
36691;SDS011;22678;52.052;4.242;2023-07-09T10:07:05;4.25;;;1.15;;
36691;SDS011;22678;52.052;4.242;2023-07-09T10:09:38;2.65;;;1.05;;
36691;SDS011;22678;52.052;4.242;2023-07-09T10:17:39;2.00;;;0.70;;
36691;SDS011;22678;52.052;4.242;2023-07-09T10:20:20;3.67;;;1.48;;
36691;SDS011;22678;52.052;4.242;2023-07-09T10:31:14;5.25;;;0.80;;
36691;SDS011;22678;52.052;4.242;2023-07-09T10:34:00;4.28;;;1.08;;
36691;SDS011;22678;52.052;4.242;2023-07-09T10:41:44;2.17;;;0.63;;
36691;SDS011;22678;52.052;4.242;2023-07-09T10:50:04;3.65;;;0.80;;
36691;SDS011;22678;52.052;4.242;2023-07-09T10:52:36;3.55;;;1.38;;
36691;SDS011;22678;52.052;4.242;2023-07-09T10:57:59;3.30;;;1.20;;
36691;SDS011;22678;52.052;4.242;2023-07-09T11:00:32;7.25;;;1.08;;
36691;SDS011;22678;52.052;4.242;2023-07-09T11:03:03;5.45;;;0.80;;
36691;SDS011;22678;52.052;4.242;2023-07-09T11:05:35;7.95;;;1.50;;
36691;SDS011;22678;52.052;4.242;2023-07-09T11:10:41;2.85;;;1.02;;
36691;SDS011;22678;52.052;4.242;2023-07-09T11:13:13;8.25;;;3.80;;
36691;SDS011;22678;52.052;4.242;2023-07-09T11:15:44;3.47;;;0.90;;
36691;SDS011;22678;52.052;4.242;2023-07-09T11:18:20;5.75;;;1.02;;
36691;SDS011;22678;52.052;4.242;2023-07-09T11:20:54;5.45;;;1.30;;
36691;SDS011;22678;52.052;4.242;2023-07-09T11:23:47;7.22;;;1.33;;
36691;SDS011;22678;52.052;4.242;2023-07-09T11:26:32;4.80;;;1.48;;
36691;SDS011;22678;52.052;4.242;2023-07-09T11:31:35;4.32;;;1.00;;
36691;SDS011;22678;52.052;4.242;2023-07-09T11:39:30;4.25;;;2.25;;
36691;SDS011;22678;52.052;4.242;2023-07-09T11:48:23;8.65;;;3.90;;
36691;SDS011;22678;52.052;4.242;2023-07-09T11:50:31;11.65;;;4.90;;
36691;SDS011;22678;52.052;4.242;2023-07-09T11:53:02;11.65;;;4.50;;
36691;SDS011;22678;52.052;4.242;2023-07-09T11:55:42;12.32;;;4.20;;
36691;SDS011;22678;52.052;4.242;2023-07-09T12:00:40;13.85;;;3.15;;
36691;SDS011;22678;52.052;4.242;2023-07-09T12:03:14;16.27;;;3.40;;
36691;SDS011;22678;52.052;4.242;2023-07-09T12:05:44;13.27;;;2.63;;
36691;SDS011;22678;52.052;4.242;2023-07-09T12:08:15;17.00;;;3.85;;
36691;SDS011;22678;52.052;4.242;2023-07-09T12:10:41;9.07;;;3.38;;
36691;SDS011;22678;52.052;4.242;2023-07-09T12:13:08;18.23;;;3.60;;
36691;SDS011;22678;52.052;4.242;2023-07-09T12:15:35;16.27;;;3.78;;
36691;SDS011;22678;52.052;4.242;2023-07-09T12:18:09;13.93;;;3.45;;
36691;SDS011;22678;52.052;4.242;2023-07-09T12:20:37;14.60;;;4.53;;
36691;SDS011;22678;52.052;4.242;2023-07-09T12:25:46;20.05;;;5.40;;
36691;SDS011;22678;52.052;4.242;2023-07-09T12:28:14;19.90;;;6.38;;
36691;SDS011;22678;52.052;4.242;2023-07-09T12:30:40;17.67;;;7.13;;
36691;SDS011;22678;52.052;4.242;2023-07-09T12:33:12;17.63;;;5.57;;
36691;SDS011;22678;52.052;4.242;2023-07-09T12:35:41;14.52;;;5.38;;
36691;SDS011;22678;52.052;4.242;2023-07-09T12:38:12;20.45;;;6.95;;
36691;SDS011;22678;52.052;4.242;2023-07-09T12:40:42;13.75;;;5.13;;
36691;SDS011;22678;52.052;4.242;2023-07-09T12:43:08;16.85;;;6.05;;
36691;SDS011;22678;52.052;4.242;2023-07-09T12:45:36;17.13;;;5.05;;
36691;SDS011;22678;52.052;4.242;2023-07-09T12:48:02;18.25;;;7.53;;
36691;SDS011;22678;52.052;4.242;2023-07-09T12:50:32;13.52;;;4.22;;
36691;SDS011;22678;52.052;4.242;2023-07-09T12:55:40;14.52;;;5.38;;
36691;SDS011;22678;52.052;4.242;2023-07-09T12:58:09;14.90;;;4.35;;
36691;SDS011;22678;52.052;4.242;2023-07-09T13:00:40;9.40;;;3.60;;
36691;SDS011;22678;52.052;4.242;2023-07-09T13:03:12;12.38;;;5.00;;
36691;SDS011;22678;52.052;4.242;2023-07-09T13:05:39;11.93;;;5.05;;
36691;SDS011;22678;52.052;4.242;2023-07-09T13:08:16;13.05;;;4.53;;
36691;SDS011;22678;52.052;4.242;2023-07-09T13:10:42;9.38;;;4.20;;
36691;SDS011;22678;52.052;4.242;2023-07-09T13:13:10;7.80;;;3.60;;
36691;SDS011;22678;52.052;4.242;2023-07-09T13:15:40;10.23;;;4.32;;
36691;SDS011;22678;52.052;4.242;2023-07-09T13:18:08;10.60;;;3.97;;
36691;SDS011;22678;52.052;4.242;2023-07-09T13:20:40;8.10;;;3.67;;
36691;SDS011;22678;52.052;4.242;2023-07-09T13:23:18;10.15;;;4.80;;
36691;SDS011;22678;52.052;4.242;2023-07-09T13:25:45;13.55;;;4.72;;
36691;SDS011;22678;52.052;4.242;2023-07-09T13:28:27;11.32;;;5.22;;
36691;SDS011;22678;52.052;4.242;2023-07-09T13:30:58;8.85;;;3.67;;
36691;SDS011;22678;52.052;4.242;2023-07-09T13:33:26;14.05;;;4.03;;
36691;SDS011;22678;52.052;4.242;2023-07-09T13:35:51;9.65;;;4.35;;
36691;SDS011;22678;52.052;4.242;2023-07-09T13:38:19;10.15;;;3.90;;
36691;SDS011;22678;52.052;4.242;2023-07-09T13:40:47;9.23;;;3.25;;
36691;SDS011;22678;52.052;4.242;2023-07-09T13:43:19;7.55;;;3.35;;
36691;SDS011;22678;52.052;4.242;2023-07-09T13:45:51;10.20;;;5.55;;
36691;SDS011;22678;52.052;4.242;2023-07-09T13:48:18;14.40;;;5.47;;
36691;SDS011;22678;52.052;4.242;2023-07-09T13:50:45;9.13;;;3.90;;
36691;SDS011;22678;52.052;4.242;2023-07-09T13:53:13;6.10;;;2.60;;
36691;SDS011;22678;52.052;4.242;2023-07-09T13:55:40;12.45;;;2.85;;
36691;SDS011;22678;52.052;4.242;2023-07-09T13:58:16;8.52;;;2.80;;
36691;SDS011;22678;52.052;4.242;2023-07-09T14:00:44;4.78;;;2.17;;
36691;SDS011;22678;52.052;4.242;2023-07-09T14:03:14;6.18;;;3.33;;
36691;SDS011;22678;52.052;4.242;2023-07-09T14:05:43;6.20;;;2.90;;
36691;SDS011;22678;52.052;4.242;2023-07-09T14:08:09;8.23;;;2.35;;
36691;SDS011;22678;52.052;4.242;2023-07-09T14:10:35;7.38;;;2.80;;
36691;SDS011;22678;52.052;4.242;2023-07-09T14:13:00;6.70;;;3.40;;
36691;SDS011;22678;52.052;4.242;2023-07-09T14:15:27;7.93;;;2.53;;
36691;SDS011;22678;52.052;4.242;2023-07-09T14:17:53;7.32;;;3.03;;
36691;SDS011;22678;52.052;4.242;2023-07-09T14:20:20;6.13;;;2.25;;
36691;SDS011;22678;52.052;4.242;2023-07-09T14:22:47;5.00;;;2.20;;
36691;SDS011;22678;52.052;4.242;2023-07-09T14:25:18;4.60;;;1.63;;
36691;SDS011;22678;52.052;4.242;2023-07-09T14:27:48;5.90;;;1.98;;
36691;SDS011;22678;52.052;4.242;2023-07-09T14:30:19;8.27;;;1.83;;
36691;SDS011;22678;52.052;4.242;2023-07-09T14:32:47;8.82;;;3.20;;
36691;SDS011;22678;52.052;4.242;2023-07-09T14:35:21;8.05;;;1.83;;
36691;SDS011;22678;52.052;4.242;2023-07-09T14:37:50;7.47;;;1.92;;
36691;SDS011;22678;52.052;4.242;2023-07-09T14:40:17;6.85;;;2.35;;
36691;SDS011;22678;52.052;4.242;2023-07-09T14:42:48;11.52;;;2.42;;
36691;SDS011;22678;52.052;4.242;2023-07-09T14:45:21;6.43;;;1.77;;
36691;SDS011;22678;52.052;4.242;2023-07-09T14:47:51;8.00;;;2.20;;
36691;SDS011;22678;52.052;4.242;2023-07-09T14:50:17;4.47;;;1.52;;
36691;SDS011;22678;52.052;4.242;2023-07-09T14:52:44;7.00;;;1.73;;
36691;SDS011;22678;52.052;4.242;2023-07-09T14:55:13;7.03;;;1.88;;
36691;SDS011;22678;52.052;4.242;2023-07-09T14:57:40;6.50;;;2.50;;
36691;SDS011;22678;52.052;4.242;2023-07-09T15:00:06;4.93;;;1.00;;
36691;SDS011;22678;52.052;4.242;2023-07-09T15:02:37;4.70;;;1.08;;
36691;SDS011;22678;52.052;4.242;2023-07-09T15:05:06;7.60;;;1.52;;
36691;SDS011;22678;52.052;4.242;2023-07-09T15:07:38;4.70;;;2.00;;
36691;SDS011;22678;52.052;4.242;2023-07-09T15:10:04;3.95;;;1.40;;
36691;SDS011;22678;52.052;4.242;2023-07-09T15:12:34;5.65;;;1.42;;
36691;SDS011;22678;52.052;4.242;2023-07-09T15:17:37;6.15;;;1.20;;
36691;SDS011;22678;52.052;4.242;2023-07-09T15:20:03;5.93;;;1.13;;
36691;SDS011;22678;52.052;4.242;2023-07-09T15:22:33;4.78;;;1.73;;
36691;SDS011;22678;52.052;4.242;2023-07-09T15:25:00;4.47;;;0.90;;
36691;SDS011;22678;52.052;4.242;2023-07-09T15:27:27;8.45;;;2.38;;
36691;SDS011;22678;52.052;4.242;2023-07-09T15:29:52;9.75;;;4.07;;
36691;SDS011;22678;52.052;4.242;2023-07-09T15:32:18;5.47;;;1.88;;
36691;SDS011;22678;52.052;4.242;2023-07-09T15:34:43;6.32;;;1.48;;
36691;SDS011;22678;52.052;4.242;2023-07-09T15:37:11;8.13;;;2.45;;
36691;SDS011;22678;52.052;4.242;2023-07-09T15:39:38;6.93;;;2.35;;
36691;SDS011;22678;52.052;4.242;2023-07-09T15:42:11;5.82;;;2.42;;
36691;SDS011;22678;52.052;4.242;2023-07-09T15:44:37;4.68;;;1.95;;
36691;SDS011;22678;52.052;4.242;2023-07-09T15:47:03;4.70;;;2.78;;
36691;SDS011;22678;52.052;4.242;2023-07-09T15:49:33;5.00;;;2.15;;
36691;SDS011;22678;52.052;4.242;2023-07-09T15:52:00;2.92;;;1.02;;
36691;SDS011;22678;52.052;4.242;2023-07-09T15:54:27;6.03;;;1.15;;
36691;SDS011;22678;52.052;4.242;2023-07-09T15:56:53;5.63;;;1.52;;
36691;SDS011;22678;52.052;4.242;2023-07-09T16:01:53;4.07;;;1.48;;
36691;SDS011;22678;52.052;4.242;2023-07-09T16:04:19;7.88;;;1.85;;
36691;SDS011;22678;52.052;4.242;2023-07-09T16:06:44;4.45;;;1.67;;